createdAt,value
2023-04-21T00:01:26.180Z,94.70
2023-04-21T00:03:52.901Z,94.70
2023-04-21T00:06:22.764Z,94.70
2023-04-21T00:08:50.477Z,94.80
2023-04-21T00:11:17.809Z,94.90
2023-04-21T00:13:45.071Z,95.10
2023-04-21T00:16:11.908Z,95.10
2023-04-21T00:18:38.613Z,95.20
2023-04-21T00:21:05.541Z,95.20
2023-04-21T00:23:32.235Z,95.30
2023-04-21T00:26:02.499Z,95.40
2023-04-21T00:28:29.800Z,95.50
2023-04-21T00:30:57.969Z,95.60
2023-04-21T00:33:25.900Z,95.60
2023-04-21T00:35:54.330Z,95.70
2023-04-21T00:38:21.097Z,95.70
2023-04-21T00:40:47.851Z,95.70
2023-04-21T00:43:14.606Z,95.80
2023-04-21T00:45:41.348Z,95.80
2023-04-21T00:48:08.079Z,95.80
2023-04-21T00:50:34.994Z,96.00
2023-04-21T00:53:01.674Z,96.00
2023-04-21T00:55:29.255Z,96.00
2023-04-21T00:57:56.607Z,95.90
2023-04-21T01:00:27.948Z,95.90
2023-04-21T01:02:55.262Z,96.00
2023-04-21T01:05:22.877Z,96.10
2023-04-21T01:07:50.222Z,96.10
2023-04-21T01:10:16.892Z,96.00
2023-04-21T01:12:46.514Z,96.10
2023-04-21T01:15:17.878Z,96.10
2023-04-21T01:17:45.185Z,96.30
2023-04-21T01:20:14.705Z,96.10
2023-04-21T01:22:42.851Z,96.20
2023-04-21T01:25:10.113Z,96.20
2023-04-21T01:27:37.296Z,96.20
2023-04-21T01:30:05.707Z,96.10
2023-04-21T01:32:32.721Z,96.20
2023-04-21T01:35:00.250Z,96.10
2023-04-21T01:37:31.747Z,96.20
2023-04-21T01:40:01.269Z,96.70
2023-04-21T01:42:29.812Z,96.20
2023-04-21T01:44:58.575Z,96.20
2023-04-21T01:47:25.594Z,96.20
2023-04-21T01:49:52.833Z,96.30
2023-04-21T01:52:19.899Z,96.20
2023-04-21T01:54:47.158Z,96.30
2023-04-21T01:57:14.939Z,96.30
2023-04-21T01:59:41.624Z,96.40
2023-04-21T02:02:08.611Z,96.20
2023-04-21T02:04:36.125Z,96.30
2023-04-21T02:07:02.966Z,96.30
2023-04-21T02:09:29.721Z,96.30
2023-04-21T02:11:57.199Z,96.30
2023-04-21T02:14:25.360Z,96.20
2023-04-21T02:16:52.170Z,96.30
2023-04-21T02:19:19.318Z,96.20
2023-04-21T02:21:46.113Z,96.30
2023-04-21T02:24:13.401Z,96.20
2023-04-21T02:26:40.345Z,96.20
2023-04-21T02:29:07.215Z,96.20
2023-04-21T02:31:38.368Z,96.20
2023-04-21T02:34:13.035Z,96.20
2023-04-21T02:36:39.879Z,96.10
2023-04-21T02:39:06.618Z,96.10
2023-04-21T02:41:33.392Z,96.20
2023-04-21T02:44:00.889Z,96.10
2023-04-21T02:46:27.535Z,96.20
2023-04-21T02:48:54.255Z,96.10
2023-04-21T02:51:21.041Z,96.20
2023-04-21T02:53:47.766Z,96.30
2023-04-21T02:56:14.588Z,96.30
2023-04-21T02:58:41.474Z,96.20
2023-04-21T03:01:08.206Z,96.20
2023-04-21T03:03:35.289Z,96.20
2023-04-21T03:06:04.062Z,96.20
2023-04-21T03:08:31.628Z,96.30
2023-04-21T03:10:59.321Z,96.30
2023-04-21T03:13:25.969Z,96.20
2023-04-21T03:15:52.855Z,96.60
2023-04-21T03:18:19.513Z,96.20
2023-04-21T03:20:46.263Z,96.20
2023-04-21T03:23:13.056Z,96.50
2023-04-21T03:25:39.787Z,96.10
2023-04-21T03:28:06.533Z,96.10
2023-04-21T03:30:33.398Z,96.10
2023-04-21T03:33:00.185Z,96.10
2023-04-21T03:35:27.402Z,96.10
2023-04-21T03:37:54.225Z,96.10
2023-04-21T03:40:21.050Z,96.00
2023-04-21T03:42:48.576Z,96.10
2023-04-21T03:45:15.327Z,96.00
2023-04-21T03:47:42.038Z,96.00
2023-04-21T03:50:09.004Z,96.00
2023-04-21T03:52:35.775Z,96.00
2023-04-21T03:55:02.517Z,96.00
2023-04-21T03:57:29.198Z,96.00
2023-04-21T03:59:55.887Z,96.00
2023-04-21T04:02:22.938Z,96.00
2023-04-21T04:04:49.883Z,96.00
2023-04-21T04:07:17.416Z,96.00
2023-04-21T04:09:44.484Z,96.00
2023-04-21T04:12:11.825Z,96.00
2023-04-21T04:14:39.626Z,96.10
2023-04-21T04:17:06.486Z,96.10
2023-04-21T04:19:33.145Z,96.10
2023-04-21T04:22:01.123Z,96.10
2023-04-21T04:24:28.193Z,96.20
2023-04-21T04:26:55.246Z,96.20
2023-04-21T04:29:22.480Z,96.20
2023-04-21T04:31:52.078Z,96.30
2023-04-21T04:34:19.238Z,96.40
2023-04-21T04:36:47.853Z,96.70
2023-04-21T04:39:16.618Z,96.40
2023-04-21T04:41:43.425Z,96.50
2023-04-21T04:44:11.160Z,96.40
2023-04-21T04:46:39.036Z,96.40
2023-04-21T04:49:05.843Z,96.40
2023-04-21T04:51:32.616Z,96.40
2023-04-21T04:53:59.330Z,96.40
2023-04-21T04:56:26.053Z,96.50
2023-04-21T04:58:52.743Z,96.50
2023-04-21T05:01:19.458Z,96.50
2023-04-21T05:03:46.559Z,96.50
2023-04-21T05:06:14.192Z,96.60
2023-04-21T05:08:41.431Z,96.50
2023-04-21T05:11:08.398Z,96.50
2023-04-21T05:13:36.870Z,96.50
2023-04-21T05:16:06.035Z,96.50
2023-04-21T05:18:32.704Z,96.50
2023-04-21T05:20:59.452Z,96.50
2023-04-21T05:23:26.201Z,96.40
2023-04-21T05:25:52.995Z,96.30
2023-04-21T05:28:19.648Z,96.60
2023-04-21T05:30:46.281Z,96.30
2023-04-21T05:33:12.948Z,96.30
2023-04-21T05:35:39.674Z,96.20
2023-04-21T05:38:06.720Z,96.20
2023-04-21T05:40:33.573Z,96.20
2023-04-21T05:43:00.374Z,96.10
2023-04-21T05:45:27.051Z,96.10
2023-04-21T05:47:53.809Z,96.20
2023-04-21T05:50:20.540Z,96.20
2023-04-21T05:52:47.252Z,96.20
2023-04-21T05:55:13.926Z,96.20
2023-04-21T05:57:40.535Z,96.30
2023-04-21T06:00:07.908Z,96.20
2023-04-21T06:02:34.722Z,96.20
2023-04-21T06:05:01.767Z,96.10
2023-04-21T06:07:28.730Z,96.10
2023-04-21T06:09:55.532Z,96.10
2023-04-21T06:12:22.182Z,96.00
2023-04-21T06:14:48.873Z,96.30
2023-04-21T06:17:19.022Z,95.90
2023-04-21T06:19:45.780Z,96.00
2023-04-21T06:22:12.430Z,95.90
2023-04-21T06:24:39.059Z,95.90
2023-04-21T06:27:11.706Z,95.90
2023-04-21T06:29:39.281Z,96.00
2023-04-21T06:32:06.111Z,95.80
2023-04-21T06:34:32.780Z,95.90
2023-04-21T06:36:59.535Z,95.90
2023-04-21T06:39:26.598Z,95.90
2023-04-21T06:41:53.451Z,95.90
2023-04-21T06:44:20.319Z,95.90
2023-04-21T06:46:47.444Z,95.90
2023-04-21T06:49:14.155Z,95.90
2023-04-21T06:51:40.860Z,95.80
2023-04-21T06:54:07.530Z,95.70
2023-04-21T06:56:34.308Z,95.70
2023-04-21T06:59:00.992Z,95.60
2023-04-21T07:01:27.660Z,95.60
2023-04-21T07:03:54.711Z,95.60
2023-04-21T07:06:21.394Z,95.50
2023-04-21T07:08:48.190Z,95.60
2023-04-21T07:11:14.895Z,95.60
2023-04-21T07:13:41.512Z,95.50
2023-04-21T07:16:08.276Z,95.50
2023-04-21T07:18:34.970Z,95.60
2023-04-21T07:21:01.833Z,95.70
2023-04-21T07:23:28.634Z,95.90
2023-04-21T07:25:57.910Z,96.00
2023-04-21T07:28:24.771Z,96.10
2023-04-21T07:30:51.591Z,96.00
2023-04-21T07:33:18.301Z,95.70
2023-04-21T07:35:45.015Z,95.50
2023-04-21T07:38:11.693Z,95.10
2023-04-21T07:40:38.488Z,94.80
2023-04-21T07:43:05.147Z,94.30
2023-04-21T07:45:31.912Z,93.90
2023-04-21T07:47:59.181Z,93.70
2023-04-21T07:50:25.994Z,93.60
2023-04-21T07:52:52.708Z,93.70
2023-04-21T07:55:19.453Z,93.60
2023-04-21T07:57:46.210Z,93.20
2023-04-21T08:00:13.808Z,93.00
2023-04-21T08:02:40.970Z,92.90
2023-04-21T08:05:08.150Z,93.10
2023-04-21T08:07:34.944Z,93.00
2023-04-21T08:10:02.521Z,92.70
2023-04-21T08:12:29.653Z,92.50
2023-04-21T08:14:56.329Z,92.30
2023-04-21T08:17:23.077Z,92.10
2023-04-21T08:19:49.962Z,91.90
2023-04-21T08:22:16.637Z,91.70
2023-04-21T08:24:43.361Z,91.40
2023-04-21T08:27:10.061Z,91.00
2023-04-21T08:29:36.701Z,90.80
2023-04-21T08:32:03.648Z,90.70
2023-04-21T08:34:30.921Z,90.30
2023-04-21T08:36:57.858Z,90.10
2023-04-21T08:39:24.571Z,90.00
2023-04-21T08:41:52.155Z,90.10
2023-04-21T08:44:20.201Z,90.20
2023-04-21T08:46:49.816Z,90.50
2023-04-21T08:49:20.812Z,90.20
2023-04-21T08:51:47.909Z,90.00
2023-04-21T08:54:14.565Z,90.40
2023-04-21T08:56:41.276Z,89.70
2023-04-21T08:59:08.033Z,88.70
2023-04-21T09:02:11.127Z,87.60
2023-04-21T09:04:46.389Z,83.90
2023-04-21T09:07:33.660Z,84.50
2023-04-21T09:10:00.982Z,82.90
2023-04-21T09:12:29.002Z,84.20
2023-04-21T09:14:57.956Z,83.70
2023-04-21T09:17:33.836Z,83.40
2023-04-21T09:20:17.651Z,81.90
2023-04-21T09:22:45.088Z,81.50
2023-04-21T09:25:17.384Z,83.00
2023-04-21T09:27:44.153Z,82.90
2023-04-21T09:30:11.404Z,84.00
2023-04-21T09:32:41.614Z,83.70
2023-04-21T09:35:11.927Z,82.60
2023-04-21T09:37:39.497Z,81.40
2023-04-21T09:40:07.030Z,81.40
2023-04-21T09:42:37.078Z,81.20
2023-04-21T09:47:42.601Z,80.00
2023-04-21T09:50:12.870Z,79.00
2023-04-21T09:52:40.325Z,79.00
2023-04-21T09:55:12.387Z,78.60
2023-04-21T09:57:41.332Z,77.90
2023-04-21T10:00:11.008Z,78.00
2023-04-21T10:02:43.913Z,77.80
2023-04-21T10:05:12.361Z,76.80
2023-04-21T10:07:39.380Z,77.60
2023-04-21T10:10:20.280Z,77.50
2023-04-21T10:12:47.197Z,76.80
2023-04-21T10:16:00.725Z,76.80
2023-04-21T10:18:29.157Z,75.10
2023-04-21T10:20:57.941Z,75.20
2023-04-21T10:23:31.601Z,74.90
2023-04-21T10:26:32.439Z,73.80
2023-04-21T10:29:06.830Z,74.00
2023-04-21T10:31:39.069Z,75.00
2023-04-21T10:34:08.866Z,74.40
2023-04-21T10:36:45.772Z,74.60
2023-04-21T10:39:36.122Z,75.00
2023-04-21T10:42:25.242Z,74.80
2023-04-21T10:45:05.622Z,74.60
2023-04-21T10:47:42.551Z,73.80
2023-04-21T10:50:14.812Z,73.60
2023-04-21T10:52:44.920Z,73.40
2023-04-21T10:55:12.802Z,73.30
2023-04-21T10:57:42.718Z,73.40
2023-04-21T11:00:10.044Z,73.00
2023-04-21T11:02:39.094Z,72.90
2023-04-21T11:05:09.572Z,72.90
2023-04-21T11:07:36.253Z,73.20
2023-04-21T11:10:04.235Z,73.70
2023-04-21T11:12:34.030Z,73.50
2023-04-21T11:15:07.974Z,73.60
2023-04-21T11:17:35.996Z,73.60
2023-04-21T11:20:06.788Z,73.00
2023-04-21T11:22:34.160Z,73.00
2023-04-21T11:25:00.985Z,73.00
2023-04-21T11:27:31.982Z,72.90
2023-04-21T11:29:58.688Z,72.50
2023-04-21T11:32:25.566Z,72.70
2023-04-21T11:34:52.376Z,72.80
2023-04-21T11:37:26.966Z,72.60
2023-04-21T11:40:00.999Z,71.70
2023-04-21T11:42:28.519Z,72.10
2023-04-21T11:44:56.418Z,72.40
2023-04-21T11:47:25.231Z,72.00
2023-04-21T11:49:56.850Z,71.80
2023-04-21T11:52:29.042Z,71.90
2023-04-21T11:55:01.392Z,71.80
2023-04-21T11:57:29.333Z,71.70
2023-04-21T11:59:59.649Z,71.60
2023-04-21T12:02:31.525Z,71.60
2023-04-21T12:05:09.631Z,71.60
2023-04-21T12:07:41.979Z,71.60
2023-04-21T12:10:11.739Z,71.50
2023-04-21T12:12:39.433Z,71.60
2023-04-21T12:15:11.096Z,71.50
2023-04-21T12:17:45.201Z,71.20
2023-04-21T12:20:15.482Z,71.30
2023-04-21T12:22:42.157Z,71.40
2023-04-21T12:25:09.022Z,71.00
2023-04-21T12:27:36.126Z,70.30
2023-04-21T12:30:03.976Z,70.30
2023-04-21T12:32:30.860Z,70.10
2023-04-21T12:34:57.790Z,69.90
2023-04-21T12:37:24.471Z,69.30
2023-04-21T12:39:51.141Z,68.90
2023-04-21T12:42:17.852Z,68.60
2023-04-21T12:44:44.822Z,68.70
2023-04-21T12:47:11.576Z,68.80
2023-04-21T12:49:38.247Z,68.60
2023-04-21T12:52:06.042Z,67.90
2023-04-21T12:54:33.685Z,67.90
2023-04-21T12:57:00.432Z,67.80
2023-04-21T12:59:27.232Z,66.90
2023-04-21T13:01:54.158Z,66.80
2023-04-21T13:04:22.024Z,67.10
2023-04-21T13:06:49.052Z,66.90
2023-04-21T13:09:16.895Z,67.30
2023-04-21T13:11:43.586Z,67.10
2023-04-21T13:14:10.838Z,67.60
2023-04-21T13:16:37.535Z,67.80
2023-04-21T13:19:04.415Z,67.30
2023-04-21T13:21:32.561Z,67.10
2023-04-21T13:23:59.212Z,66.70
2023-04-21T13:26:27.044Z,66.30
2023-04-21T13:28:53.990Z,66.10
2023-04-21T13:31:20.845Z,66.00
2023-04-21T13:33:47.791Z,66.10
2023-04-21T13:36:14.505Z,66.40
2023-04-21T13:38:41.861Z,66.40
2023-04-21T13:41:08.822Z,66.40
2023-04-21T13:43:36.113Z,66.40
2023-04-21T13:46:02.932Z,66.40
2023-04-21T13:48:29.885Z,66.00
2023-04-21T13:50:56.700Z,65.80
2023-04-21T13:53:23.477Z,65.30
2023-04-21T13:55:50.633Z,65.10
2023-04-21T13:58:17.786Z,64.10
2023-04-21T14:00:44.468Z,63.10
2023-04-21T14:03:11.829Z,62.90
2023-04-21T14:05:39.142Z,62.60
2023-04-21T14:08:06.313Z,62.00
2023-04-21T14:10:33.726Z,61.20
2023-04-21T14:13:00.658Z,61.60
2023-04-21T14:15:27.480Z,61.60
2023-04-21T14:17:54.619Z,61.10
2023-04-21T14:20:21.300Z,61.30
2023-04-21T14:22:48.149Z,60.90
2023-04-21T14:25:15.078Z,60.50
2023-04-21T14:27:42.011Z,60.30
2023-04-21T14:30:10.419Z,60.80
2023-04-21T14:32:37.313Z,60.20
2023-04-21T14:35:05.371Z,60.20
2023-04-21T14:37:32.960Z,60.20
2023-04-21T14:39:59.781Z,60.00
2023-04-21T14:42:26.497Z,59.50
2023-04-21T14:44:53.197Z,59.50
2023-04-21T14:47:21.590Z,59.40
2023-04-21T14:49:54.554Z,59.50
2023-04-21T14:52:24.507Z,59.90
2023-04-21T14:54:51.307Z,59.60
2023-04-21T14:57:21.105Z,59.50
2023-04-21T14:59:49.847Z,59.40
2023-04-21T15:02:17.203Z,59.60
2023-04-21T15:04:44.214Z,60.30
2023-04-21T15:07:11.059Z,61.30
2023-04-21T15:09:38.974Z,61.60
2023-04-21T15:12:06.146Z,62.00
2023-04-21T15:14:32.991Z,62.20
2023-04-21T15:16:59.765Z,62.40
2023-04-21T15:19:26.648Z,62.50
2023-04-21T15:21:53.361Z,62.70
2023-04-21T15:24:20.127Z,62.90
2023-04-21T15:26:46.808Z,63.20
2023-04-21T15:29:13.636Z,63.20
2023-04-21T15:31:40.651Z,63.20
2023-04-21T15:34:07.781Z,63.30
2023-04-21T15:36:34.525Z,63.40
2023-04-21T15:39:01.229Z,63.50
2023-04-21T15:41:29.533Z,63.60
2023-04-21T15:43:56.461Z,63.80
2023-04-21T15:46:23.291Z,63.90
2023-04-21T15:48:50.174Z,63.90
2023-04-21T15:51:18.615Z,64.00
2023-04-21T15:53:47.779Z,64.10
2023-04-21T15:56:15.405Z,64.20
2023-04-21T15:58:42.515Z,64.30
2023-04-21T16:01:09.514Z,64.40
2023-04-21T16:03:36.786Z,64.60
2023-04-21T16:06:04.195Z,64.50
2023-04-21T16:08:32.977Z,64.50
2023-04-21T16:11:00.364Z,64.40
2023-04-21T16:13:27.180Z,64.40
2023-04-21T16:15:54.005Z,64.20
2023-04-21T16:18:20.912Z,64.30
2023-04-21T16:20:47.959Z,63.90
2023-04-21T16:23:15.462Z,63.90
2023-04-21T16:25:42.841Z,63.80
2023-04-21T16:28:11.235Z,63.60
2023-04-21T16:30:43.171Z,63.60
2023-04-21T16:33:11.261Z,63.40
2023-04-21T16:35:39.061Z,63.50
2023-04-21T16:38:06.119Z,63.60
2023-04-21T16:40:33.149Z,63.60
2023-04-21T16:43:00.022Z,63.70
2023-04-21T16:45:28.589Z,63.60
2023-04-21T16:47:55.743Z,63.80
2023-04-21T16:50:22.731Z,63.60
2023-04-21T16:52:49.573Z,63.80
2023-04-21T16:55:16.360Z,63.80
2023-04-21T16:57:43.101Z,63.90
2023-04-21T17:00:10.409Z,64.00
2023-04-21T17:02:37.182Z,63.90
2023-04-21T17:05:04.401Z,64.30
2023-04-21T17:07:31.971Z,64.40
2023-04-21T17:09:58.877Z,64.40
2023-04-21T17:12:25.750Z,64.40
2023-04-21T17:14:52.457Z,64.40
2023-04-21T17:17:19.294Z,64.30
2023-04-21T17:19:46.051Z,64.20
2023-04-21T17:22:12.748Z,64.30
2023-04-21T17:24:51.547Z,64.10
2023-04-21T17:27:19.239Z,64.10
2023-04-21T17:29:46.721Z,63.80
2023-04-21T17:32:13.845Z,63.90
2023-04-21T17:34:40.764Z,63.90
2023-04-21T17:37:07.577Z,64.00
2023-04-21T17:39:34.228Z,63.90
2023-04-21T17:42:02.525Z,63.90
2023-04-21T17:44:29.868Z,63.70
2023-04-21T17:46:58.007Z,63.80
2023-04-21T17:49:25.241Z,63.80
2023-04-21T17:51:52.203Z,63.80
2023-04-21T17:54:18.914Z,63.80
2023-04-21T17:56:46.096Z,63.80
2023-04-21T17:59:13.325Z,63.80
2023-04-21T18:01:40.224Z,63.20
2023-04-21T18:04:07.350Z,62.80
2023-04-21T18:06:34.800Z,62.00
2023-04-21T18:09:01.658Z,61.70
2023-04-21T18:11:28.341Z,61.70
2023-04-21T18:13:55.118Z,61.70
2023-04-21T18:16:21.976Z,62.00
2023-04-21T18:18:49.861Z,62.20
2023-04-21T18:21:17.014Z,62.40
2023-04-21T18:23:44.036Z,62.70
2023-04-21T18:26:10.898Z,63.20
2023-04-21T18:28:37.584Z,64.60
2023-04-21T18:31:04.373Z,65.00
2023-04-21T18:33:31.103Z,65.20
2023-04-21T18:35:58.308Z,65.30
2023-04-21T18:38:25.000Z,65.50
2023-04-21T18:40:51.700Z,65.50
2023-04-21T18:43:18.381Z,65.20
2023-04-21T18:45:45.176Z,65.10
2023-04-21T18:48:12.012Z,64.90
2023-04-21T18:50:40.714Z,65.10
2023-04-21T18:53:08.331Z,65.20
2023-04-21T18:55:36.343Z,65.50
2023-04-21T18:58:03.367Z,65.60
2023-04-21T19:00:31.720Z,66.10
2023-04-21T19:03:02.310Z,66.70
2023-04-21T19:05:31.600Z,67.60
2023-04-21T19:07:58.692Z,67.70
2023-04-21T19:10:26.020Z,68.00
2023-04-21T19:12:52.817Z,68.30
2023-04-21T19:15:21.023Z,68.30
2023-04-21T19:17:47.762Z,68.30
2023-04-21T19:20:14.468Z,68.20
2023-04-21T19:22:41.643Z,68.30
2023-04-21T19:25:08.861Z,68.50
2023-04-21T19:27:36.397Z,68.60
2023-04-21T19:30:03.387Z,68.90
2023-04-21T19:32:30.503Z,69.10
2023-04-21T19:34:57.433Z,69.20
2023-04-21T19:37:25.936Z,69.20
2023-04-21T19:39:52.612Z,69.30
2023-04-21T19:42:19.321Z,69.40
2023-04-21T19:44:45.978Z,69.60
2023-04-21T19:47:12.851Z,69.60
2023-04-21T19:49:40.143Z,69.70
2023-04-21T19:52:07.050Z,69.90
2023-04-21T19:54:33.778Z,69.90
2023-04-21T19:57:01.358Z,69.80
2023-04-21T19:59:28.098Z,69.80
2023-04-21T20:01:54.882Z,69.70
2023-04-21T20:04:21.787Z,69.80
2023-04-21T20:06:48.901Z,69.80
2023-04-21T20:09:16.007Z,70.00
2023-04-21T20:11:43.167Z,71.60
2023-04-21T20:14:10.689Z,72.70
2023-04-21T20:16:37.564Z,73.10
2023-04-21T20:19:04.901Z,73.30
2023-04-21T20:21:32.333Z,73.80
2023-04-21T20:23:59.052Z,74.00
2023-04-21T20:26:25.928Z,74.30
2023-04-21T20:28:52.613Z,75.00
2023-04-21T20:31:23.651Z,76.00
2023-04-21T20:33:50.986Z,76.70
2023-04-21T20:36:18.275Z,76.90
2023-04-21T20:38:46.431Z,77.20
2023-04-21T20:41:13.450Z,77.40
2023-04-21T20:43:40.325Z,78.50
2023-04-21T20:46:08.705Z,78.90
2023-04-21T20:48:35.855Z,79.20
2023-04-21T20:51:02.749Z,80.00
2023-04-21T20:53:29.491Z,80.60
2023-04-21T20:55:56.297Z,81.40
2023-04-21T20:58:24.670Z,81.70
2023-04-21T21:00:51.499Z,81.90
2023-04-21T21:03:20.273Z,82.60
2023-04-21T21:05:48.624Z,83.00
2023-04-21T21:08:15.329Z,83.60
2023-04-21T21:10:42.357Z,84.80
2023-04-21T21:13:09.181Z,85.40
2023-04-21T21:15:35.929Z,85.90
2023-04-21T21:18:03.162Z,86.20
2023-04-21T21:20:29.891Z,86.80
2023-04-21T21:22:56.646Z,87.20
2023-04-21T21:25:23.395Z,87.80
2023-04-21T21:27:50.360Z,88.50
2023-04-21T21:30:17.127Z,89.10
2023-04-21T21:32:43.964Z,90.00
2023-04-21T21:35:11.854Z,90.50
2023-04-21T21:37:38.835Z,90.90
2023-04-21T21:40:06.449Z,91.30
2023-04-21T21:42:33.146Z,91.50
2023-04-21T21:44:59.950Z,91.70
2023-04-21T21:47:27.022Z,91.90
2023-04-21T21:49:55.794Z,92.00
2023-04-21T21:52:22.629Z,92.20
2023-04-21T21:54:49.318Z,92.50
2023-04-21T21:57:16.745Z,92.70
2023-04-21T21:59:43.739Z,93.00
2023-04-21T22:02:10.676Z,93.10
2023-04-21T22:04:37.783Z,93.30
2023-04-21T22:07:04.995Z,93.50
2023-04-21T22:09:31.712Z,93.80
2023-04-21T22:11:58.484Z,93.80
2023-04-21T22:14:25.283Z,93.90
2023-04-21T22:16:52.450Z,94.00
2023-04-21T22:19:19.396Z,94.10
2023-04-21T22:21:46.224Z,94.30
2023-04-21T22:24:13.273Z,94.50
2023-04-21T22:26:40.202Z,94.60
2023-04-21T22:29:07.041Z,94.70
2023-04-21T22:31:33.874Z,94.90
2023-04-21T22:34:00.694Z,95.00
2023-04-21T22:36:27.461Z,95.20
2023-04-21T22:38:54.216Z,95.20
2023-04-21T22:41:21.116Z,95.20
2023-04-21T22:43:48.034Z,95.20
2023-04-21T22:46:15.088Z,95.20
2023-04-21T22:48:41.932Z,95.30
2023-04-21T22:51:10.260Z,95.40
2023-04-21T22:53:36.887Z,95.50
2023-04-21T22:56:04.308Z,95.40
2023-04-21T22:58:31.281Z,95.50
2023-04-21T23:00:58.065Z,95.60
2023-04-21T23:03:25.154Z,95.60
2023-04-21T23:05:51.966Z,95.60
2023-04-21T23:08:18.594Z,95.60
2023-04-21T23:10:45.509Z,95.60
2023-04-21T23:13:12.226Z,95.60
2023-04-21T23:15:38.890Z,95.60
2023-04-21T23:18:06.182Z,95.60
2023-04-21T23:20:32.980Z,95.60
2023-04-21T23:22:59.738Z,95.60
2023-04-21T23:25:26.722Z,95.70
2023-04-21T23:27:53.433Z,95.70
2023-04-21T23:30:20.215Z,95.80
2023-04-21T23:32:47.109Z,95.90
2023-04-21T23:35:13.839Z,96.00
2023-04-21T23:37:40.601Z,96.10
2023-04-21T23:40:10.932Z,96.20
2023-04-21T23:42:38.730Z,96.20
2023-04-21T23:45:06.684Z,96.20
2023-04-21T23:47:33.867Z,96.20
2023-04-21T23:50:00.740Z,96.10
2023-04-21T23:52:27.490Z,96.10
2023-04-21T23:54:54.300Z,96.20
2023-04-21T23:57:21.164Z,96.20
2023-04-21T23:59:48.003Z,96.10
